Terminal Aerodrome Forecast
Issued by NWS Riverton, WY

Home | Current Version | Previous Version | Text Only | Print | Product List | Glossary On
Versions: 1 2 3 4 5 6 7 8 9 10 11 12 13 14 15
269
FTUS45 KRIW 251120
TAFRIW
TAF
KRIW 251120Z 2512/2612 29007KT P6SM SCT100 BKN150
     FM251500 VRB06KT P6SM VCSH BKN100
     FM251900 VRB12G20KT P6SM -SHRA VCTS SCT060CB BKN090
     FM260100 30008KT P6SM VCSH BKN060
     FM260400 35007KT P6SM BKN100=

USA.gov is the U.S. government's official web portal to all federal, state and local government web resources and services.